Time;durP1;ratioP1;P1;durP2;ratioP2;P2;SDS_P1;SDS_P2;PMS_P1;PMS_P2;Temp;Humidity;BMP_temperature;BMP_pressure;BME280_temperature;BME280_humidity;BME280_pressure;Samples;Min_cycle;Max_cycle;Signal;HPM_P1;HPM_P2
2022/04/16 00:00:55;;;;;;;13.07;6.63;;;;;;;;;;2104980;28;20042;-43
2022/04/16 00:01:59;;;;;;;12.43;6.40;;;;;;;;;;2097658;28;20056;-47
2022/04/16 00:03:00;;;;;;;9.55;6.22;;;;;;;;;;2097569;28;20333;-47
2022/04/16 00:04:02;;;;;;;12.32;6.43;;;;;;;;;;2097689;28;20052;-48
2022/04/16 00:05:03;;;;;;;12.35;6.63;;;;;;;;;;2097599;28;20489;-46
2022/04/16 00:06:04;;;;;;;12.73;7.25;;;;;;;;;;2097901;28;20075;-44
2022/04/16 00:07:05;;;;;;;13.10;5.72;;;;;;;;;;2097631;28;20521;-44
2022/04/16 00:08:06;;;;;;;12.33;6.40;;;;;;;;;;2097851;28;20039;-45
2022/04/16 00:09:08;;;;;;;8.60;5.82;;;;;;;;;;2097581;28;20451;-44
2022/04/16 00:10:09;;;;;;;10.38;5.38;;;;;;;;;;2097713;28;20527;-43
2022/04/16 00:11:10;;;;;;;10.48;6.00;;;;;;;;;;2097591;28;20132;-44
2022/04/16 00:12:11;;;;;;;14.95;6.57;;;;;;;;;;2097527;28;20082;-44
2022/04/16 00:13:12;;;;;;;11.32;5.10;;;;;;;;;;2097480;28;20536;-43
2022/04/16 00:14:15;;;;;;;9.73;5.47;;;;;;;;;;2097516;28;20044;-44
2022/04/16 00:15:16;;;;;;;10.48;6.55;;;;;;;;;;2097659;28;20120;-44
2022/04/16 00:16:17;;;;;;;10.60;6.10;;;;;;;;;;2097349;28;20139;-45
2022/04/16 00:17:19;;;;;;;12.02;6.03;;;;;;;;;;2097623;28;20056;-43
2022/04/16 00:18:21;;;;;;;10.93;6.07;;;;;;;;;;2097598;28;20127;-42
2022/04/16 00:19:23;;;;;;;12.73;6.00;;;;;;;;;;2097557;28;20052;-44
2022/04/16 00:20:26;;;;;;;11.23;5.50;;;;;;;;;;2097603;28;20131;-44
2022/04/16 00:21:31;;;;;;;9.40;5.85;;;;;;;;;;2097605;28;20131;-47
2022/04/16 00:22:32;;;;;;;10.77;5.88;;;;;;;;;;2097346;28;20165;-47
2022/04/16 00:23:33;;;;;;;8.30;5.40;;;;;;;;;;2097518;28;20060;-47
2022/04/16 00:24:34;;;;;;;9.05;5.57;;;;;;;;;;2097564;28;20575;-46
2022/04/16 00:25:35;;;;;;;7.28;4.75;;;;;;;;;;2097421;28;20051;-47
2022/04/16 00:26:40;;;;;;;11.45;6.13;;;;;;;;;;2097511;28;20052;-47
2022/04/16 00:27:41;;;;;;;10.15;5.57;;;;;;;;;;2097456;28;20501;-49
2022/04/16 00:28:42;;;;;;;9.35;5.65;;;;;;;;;;2097818;28;20560;-47
2022/04/16 00:29:44;;;;;;;10.03;5.57;;;;;;;;;;2097451;28;20064;-46
2022/04/16 00:30:45;;;;;;;12.60;6.05;;;;;;;;;;2097601;28;20040;-47
2022/04/16 00:31:46;;;;;;;10.82;5.70;;;;;;;;;;2097465;28;20048;-47
2022/04/16 00:32:51;;;;;;;11.65;5.63;;;;;;;;;;2097431;28;20131;-47
2022/04/16 00:33:55;;;;;;;11.52;5.72;;;;;;;;;;2097493;28;20072;-48
2022/04/16 00:34:56;;;;;;;9.73;6.05;;;;;;;;;;2099321;28;20064;-47
2022/04/16 00:35:57;;;;;;;10.07;5.60;;;;;;;;;;2105776;28;20461;-46
2022/04/16 00:36:58;;;;;;;11.05;5.72;;;;;;;;;;2105904;28;20119;-45
2022/04/16 00:38:00;;;;;;;9.63;5.47;;;;;;;;;;2105917;28;20508;-46
2022/04/16 00:39:00;;;;;;;10.43;5.47;;;;;;;;;;2105799;28;20060;-49
2022/04/16 00:40:02;;;;;;;9.17;5.20;;;;;;;;;;2105946;28;20056;-45
2022/04/16 00:41:04;;;;;;;9.80;5.43;;;;;;;;;;2105548;28;20062;-47
2022/04/16 00:42:05;;;;;;;12.52;6.15;;;;;;;;;;2105894;28;20204;-46
2022/04/16 00:43:06;;;;;;;7.40;5.18;;;;;;;;;;2105811;28;20126;-46
2022/04/16 00:44:08;;;;;;;11.23;5.57;;;;;;;;;;2105777;28;20059;-46
2022/04/16 00:45:09;;;;;;;8.43;5.35;;;;;;;;;;2105859;28;20051;-47
2022/04/16 00:46:10;;;;;;;9.57;5.72;;;;;;;;;;2105769;28;20173;-46
2022/04/16 00:47:12;;;;;;;10.95;5.05;;;;;;;;;;2105607;28;20100;-46
2022/04/16 00:48:14;;;;;;;7.85;5.13;;;;;;;;;;2105716;28;20545;-46
2022/04/16 00:49:15;;;;;;;;;;;;;;;;;;2106253;28;20127;-46
2022/04/16 00:50:16;;;;;;;9.40;4.90;;;;;;;;;;2105620;28;19920;-47
2022/04/16 00:51:17;;;;;;;9.55;6.25;;;;;;;;;;2105829;28;20154;-47
2022/04/16 00:52:25;;;;;;;13.27;6.03;;;;;;;;;;2105751;28;20075;-46
2022/04/16 00:53:27;;;;;;;9.32;5.68;;;;;;;;;;2105586;28;20486;-47
2022/04/16 00:54:29;;;;;;;13.48;5.72;;;;;;;;;;2105759;28;20071;-46
2022/04/16 00:55:31;;;;;;;11.95;6.55;;;;;;;;;;2105689;28;20587;-47
2022/04/16 00:56:32;;;;;;;11.02;6.38;;;;;;;;;;2105627;28;20131;-45
2022/04/16 00:57:33;;;;;;;10.85;4.93;;;;;;;;;;2105884;28;20107;-49
2022/04/16 00:58:34;;;;;;;11.00;5.63;;;;;;;;;;2105978;28;20393;-47
2022/04/16 00:59:35;;;;;;;9.90;6.03;;;;;;;;;;2105636;28;20135;-46
2022/04/16 01:00:37;;;;;;;10.10;5.90;;;;;;;;;;2105859;28;20058;-46
2022/04/16 01:01:38;;;;;;;9.52;5.78;;;;;;;;;;2099476;28;20062;-46
2022/04/16 01:02:39;;;;;;;8.77;5.22;;;;;;;;;;2097348;28;20106;-46
2022/04/16 01:03:45;;;;;;;9.35;5.95;;;;;;;;;;2097322;28;20068;-47
2022/04/16 01:04:46;;;;;;;13.38;5.90;;;;;;;;;;2097466;28;20119;-46
2022/04/16 01:05:47;;;;;;;10.38;6.05;;;;;;;;;;2097254;28;20128;-46
2022/04/16 01:06:48;;;;;;;10.48;5.70;;;;;;;;;;2097296;28;20127;-46
2022/04/16 01:07:53;;;;;;;7.97;4.65;;;;;;;;;;2097311;28;20055;-46
2022/04/16 01:08:54;;;;;;;9.13;5.05;;;;;;;;;;2097298;28;20207;-47
2022/04/16 01:09:55;;;;;;;9.00;5.20;;;;;;;;;;2097362;28;20153;-46
2022/04/16 01:10:56;;;;;;;11.37;5.77;;;;;;;;;;2097056;28;20041;-46
2022/04/16 01:11:57;;;;;;;10.70;6.03;;;;;;;;;;2097377;28;20056;-49
2022/04/16 01:13:00;;;;;;;9.90;5.43;;;;;;;;;;2098132;28;20048;-47
2022/04/16 01:14:01;;;;;;;12.18;6.15;;;;;;;;;;2098743;28;20048;-47
2022/04/16 01:15:03;;;;;;;10.00;6.05;;;;;;;;;;2098640;28;20635;-46
2022/04/16 01:16:05;;;;;;;10.60;5.68;;;;;;;;;;2098681;28;20128;-46
2022/04/16 01:17:05;;;;;;;11.02;5.90;;;;;;;;;;2098653;28;20125;-46
2022/04/16 01:18:07;;;;;;;9.27;5.38;;;;;;;;;;2098755;28;20056;-47
2022/04/16 01:19:10;;;;;;;8.10;5.93;;;;;;;;;;2098658;28;20488;-45
2022/04/16 01:20:11;;;;;;;9.32;5.68;;;;;;;;;;2098534;28;20052;-47
2022/04/16 01:21:12;;;;;;;8.27;4.97;;;;;;;;;;2098656;28;20615;-48
2022/04/16 01:22:13;;;;;;;9.88;5.30;;;;;;;;;;2101185;28;20083;-45
2022/04/16 01:23:15;;;;;;;9.30;5.05;;;;;;;;;;2106976;28;20072;-45
2022/04/16 01:24:16;;;;;;;;;;;;;;;;;;2107621;28;20566;-47
2022/04/16 01:25:18;;;;;;;11.05;6.10;;;;;;;;;;2106984;28;19941;-46
2022/04/16 01:26:20;;;;;;;10.90;5.78;;;;;;;;;;2106767;28;20170;-46
2022/04/16 01:27:22;;;;;;;8.50;5.47;;;;;;;;;;2106962;28;20573;-46
2022/04/16 01:28:23;;;;;;;8.00;4.50;;;;;;;;;;2107035;28;20353;-45
2022/04/16 01:29:24;;;;;;;10.37;6.20;;;;;;;;;;2107097;28;20481;-47
2022/04/16 01:30:25;;;;;;;11.93;6.35;;;;;;;;;;2106753;28;20089;-43
2022/04/16 01:31:26;;;;;;;11.83;5.70;;;;;;;;;;2106801;28;20495;-43
2022/04/16 01:32:27;;;;;;;10.80;5.85;;;;;;;;;;2106944;28;20064;-43
2022/04/16 01:33:30;;;;;;;12.50;5.68;;;;;;;;;;2107158;28;20048;-43
2022/04/16 01:34:32;;;;;;;11.43;6.35;;;;;;;;;;2107042;28;20127;-43
2022/04/16 01:35:34;;;;;;;11.68;6.55;;;;;;;;;;2107010;28;20044;-43
2022/04/16 01:36:35;;;;;;;16.88;5.82;;;;;;;;;;2107127;28;20123;-42
2022/04/16 01:37:37;;;;;;;10.75;6.07;;;;;;;;;;2106986;28;20454;-43
2022/04/16 01:38:39;;;;;;;10.65;5.53;;;;;;;;;;2106886;28;20087;-43
2022/04/16 01:39:40;;;;;;;12.48;5.97;;;;;;;;;;2107098;28;20607;-43
2022/04/16 01:40:41;;;;;;;9.77;6.18;;;;;;;;;;2107049;28;20123;-43
2022/04/16 01:41:42;;;;;;;11.38;6.65;;;;;;;;;;2106893;28;20040;-43
2022/04/16 01:42:45;;;;;;;11.18;6.47;;;;;;;;;;2107005;28;20131;-43
2022/04/16 01:43:46;;;;;;;9.73;6.60;;;;;;;;;;2106864;28;20159;-42
2022/04/16 01:44:47;;;;;;;11.35;6.82;;;;;;;;;;2107272;28;20071;-47
2022/04/16 01:45:50;;;;;;;10.43;6.55;;;;;;;;;;2106972;28;20046;-47
2022/04/16 01:46:51;;;;;;;13.48;6.30;;;;;;;;;;2106791;28;20189;-47
2022/04/16 01:47:52;;;;;;;9.40;5.93;;;;;;;;;;2106992;28;20052;-46
2022/04/16 01:48:53;;;;;;;8.23;5.93;;;;;;;;;;2106863;28;20098;-46
2022/04/16 01:49:55;;;;;;;11.85;6.80;;;;;;;;;;2107037;28;20123;-46
2022/04/16 01:50:57;;;;;;;10.13;5.88;;;;;;;;;;2106649;28;20123;-47
2022/04/16 01:51:58;;;;;;;12.90;6.75;;;;;;;;;;2106804;28;20055;-47
2022/04/16 01:52:59;;;;;;;10.30;6.20;;;;;;;;;;2106851;28;20173;-49
2022/04/16 01:54:01;;;;;;;11.57;6.57;;;;;;;;;;2106770;28;20539;-47
2022/04/16 01:55:02;;;;;;;;;;;;;;;;;;2107225;28;20153;-47
2022/04/16 01:56:03;;;;;;;10.25;6.40;;;;;;;;;;2106788;28;19951;-46
2022/04/16 01:57:04;;;;;;;13.70;6.93;;;;;;;;;;2106788;28;20048;-48
2022/04/16 01:58:06;;;;;;;10.73;6.23;;;;;;;;;;2106985;28;20093;-46
2022/04/16 01:59:08;;;;;;;11.70;6.78;;;;;;;;;;2106887;28;20293;-48
2022/04/16 02:00:11;;;;;;;10.45;6.68;;;;;;;;;;2106914;28;20194;-46
2022/04/16 02:01:12;;;;;;;11.25;7.05;;;;;;;;;;2104275;28;20580;-46
2022/04/16 02:02:13;;;;;;;10.15;6.63;;;;;;;;;;2098356;28;20044;-49
2022/04/16 02:03:15;;;;;;;13.88;7.32;;;;;;;;;;2098486;28;20060;-46
2022/04/16 02:04:17;;;;;;;11.63;6.38;;;;;;;;;;2098919;28;20048;-44
2022/04/16 02:05:18;;;;;;;;;;;;;;;;;;2099173;28;20048;-46
2022/04/16 02:06:19;;;;;;;12.23;7.05;;;;;;;;;;2098349;28;19956;-47
2022/04/16 02:07:20;;;;;;;14.15;7.50;;;;;;;;;;2098388;28;20171;-47
2022/04/16 02:08:21;;;;;;;14.63;7.63;;;;;;;;;;2098544;28;20053;-47
2022/04/16 02:09:23;;;;;;;10.65;6.82;;;;;;;;;;2098346;28;20564;-46
2022/04/16 02:10:24;;;;;;;12.32;6.78;;;;;;;;;;2098415;28;20489;-47
2022/04/16 02:11:25;;;;;;;12.52;7.53;;;;;;;;;;2098198;28;20131;-46
2022/04/16 02:12:26;;;;;;;13.77;7.90;;;;;;;;;;2098513;28;20053;-46
2022/04/16 02:13:28;;;;;;;11.90;7.10;;;;;;;;;;2098432;28;20131;-47
2022/04/16 02:14:29;;;;;;;12.23;7.13;;;;;;;;;;2098680;28;20059;-46
2022/04/16 02:15:30;;;;;;;11.30;7.25;;;;;;;;;;2098297;28;20408;-46
2022/04/16 02:16:31;;;;;;;11.80;7.18;;;;;;;;;;2098489;28;20502;-43
2022/04/16 02:17:33;;;;;;;15.37;7.77;;;;;;;;;;2098370;28;20064;-43
2022/04/16 02:18:34;;;;;;;12.65;6.72;;;;;;;;;;2098386;28;20339;-45
2022/04/16 02:19:38;;;;;;;13.07;6.73;;;;;;;;;;2098421;28;20101;-43
2022/04/16 02:20:42;;;;;;;11.52;7.03;;;;;;;;;;2098390;28;20157;-43
2022/04/16 02:21:44;;;;;;;11.82;6.82;;;;;;;;;;2098412;28;20048;-43
2022/04/16 02:22:46;;;;;;;13.77;7.28;;;;;;;;;;2098224;28;20051;-43
2022/04/16 02:23:48;;;;;;;9.75;6.05;;;;;;;;;;2098348;28;20135;-47
2022/04/16 02:24:50;;;;;;;14.00;7.65;;;;;;;;;;2098160;28;20124;-47
2022/04/16 02:25:53;;;;;;;13.32;6.72;;;;;;;;;;2098399;28;20044;-47
2022/04/16 02:26:55;;;;;;;12.13;7.28;;;;;;;;;;2098188;28;20124;-46
2022/04/16 02:27:56;;;;;;;13.05;8.02;;;;;;;;;;2104231;28;20404;-47
2022/04/16 02:28:58;;;;;;;11.60;7.13;;;;;;;;;;2106685;28;20048;-47
2022/04/16 02:29:59;;;;;;;;;;;;;;;;;;2107029;28;20508;-46
2022/04/16 02:31:01;;;;;;;13.65;7.07;;;;;;;;;;2106481;28;19920;-47
2022/04/16 02:32:03;;;;;;;12.32;7.30;;;;;;;;;;2106717;28;20048;-47
2022/04/16 02:33:06;;;;;;;12.18;7.30;;;;;;;;;;2106529;28;20137;-46
2022/04/16 02:34:07;;;;;;;11.23;7.07;;;;;;;;;;2106697;28;20071;-47
2022/04/16 02:35:09;;;;;;;9.75;7.30;;;;;;;;;;2106882;28;20175;-43
2022/04/16 02:36:11;;;;;;;12.63;7.20;;;;;;;;;;2106453;28;20127;-43
2022/04/16 02:37:12;;;;;;;11.98;7.13;;;;;;;;;;2106729;28;20123;-43
2022/04/16 02:38:14;;;;;;;12.60;7.50;;;;;;;;;;2106584;28;20131;-43
2022/04/16 02:39:15;;;;;;;11.10;6.57;;;;;;;;;;2106491;28;20390;-44
2022/04/16 02:40:17;;;;;;;14.43;8.25;;;;;;;;;;2106551;28;20396;-43
2022/04/16 02:41:19;;;;;;;12.95;6.97;;;;;;;;;;2106357;28;20054;-44
2022/04/16 02:42:21;;;;;;;14.05;7.95;;;;;;;;;;2105821;28;20442;-46
2022/04/16 02:43:21;;;;;;;;;;;;;;;;;;2106744;28;20075;-47
2022/04/16 02:47:08;;;;;;;15.40;8.30;;;;;;;;;;2105905;28;20067;-43
2022/04/16 02:48:09;;;;;;;13.50;7.80;;;;;;;;;;2106314;28;20131;-46
2022/04/16 02:49:12;;;;;;;13.95;7.85;;;;;;;;;;2106474;28;20136;-42
2022/04/16 02:50:14;;;;;;;15.23;8.30;;;;;;;;;;2106571;28;20048;-43
2022/04/16 02:51:14;;;;;;;15.10;7.90;;;;;;;;;;2106503;28;20146;-45
2022/04/16 02:52:16;;;;;;;13.87;8.00;;;;;;;;;;2106535;28;20480;-43
2022/04/16 02:53:17;;;;;;;13.57;7.70;;;;;;;;;;2106458;28;20372;-47
2022/04/16 02:54:18;;;;;;;16.77;8.50;;;;;;;;;;2106395;28;20048;-46
2022/04/16 02:55:20;;;;;;;12.43;7.38;;;;;;;;;;2106521;28;20136;-46
2022/04/16 02:56:21;;;;;;;15.85;8.80;;;;;;;;;;2106394;28;20189;-46
2022/04/16 02:57:22;;;;;;;14.77;7.95;;;;;;;;;;2106611;28;20127;-44
2022/04/16 02:58:23;;;;;;;12.67;8.27;;;;;;;;;;2106368;28;20040;-43
2022/04/16 02:59:24;;;;;;;12.45;7.85;;;;;;;;;;2106534;28;20058;-43
2022/04/16 03:00:26;;;;;;;16.60;9.23;;;;;;;;;;2106516;28;20131;-43
2022/04/16 03:01:27;;;;;;;16.80;9.15;;;;;;;;;;2101855;28;20156;-45
2022/04/16 03:02:28;;;;;;;17.90;9.40;;;;;;;;;;2097998;28;20066;-43
2022/04/16 03:03:29;;;;;;;16.83;9.10;;;;;;;;;;2098204;28;20289;-43
2022/04/16 03:04:31;;;;;;;13.98;8.65;;;;;;;;;;2097989;28;20448;-46
2022/04/16 03:05:32;;;;;;;14.27;8.15;;;;;;;;;;2098190;28;20093;-47
2022/04/16 03:06:33;;;;;;;13.18;8.05;;;;;;;;;;2098124;28;20129;-46
2022/04/16 03:07:34;;;;;;;13.27;7.78;;;;;;;;;;2097931;28;20608;-46
2022/04/16 03:08:35;;;;;;;13.70;9.32;;;;;;;;;;2098022;28;20059;-45
2022/04/16 03:09:36;;;;;;;15.07;8.18;;;;;;;;;;2097996;28;20194;-43
2022/04/16 03:10:38;;;;;;;14.33;7.83;;;;;;;;;;2097933;28;20077;-43
2022/04/16 03:11:40;;;;;;;14.23;8.75;;;;;;;;;;2097924;28;20048;-43
2022/04/16 03:12:42;;;;;;;13.73;8.52;;;;;;;;;;2098063;28;20094;-46
2022/04/16 03:13:43;;;;;;;15.40;8.90;;;;;;;;;;2098053;28;20078;-45
2022/04/16 03:17:32;;;;;;;17.30;8.80;;;;;;;;;;2098092;28;20045;-43
2022/04/16 03:18:33;;;;;;;14.18;8.70;;;;;;;;;;2097946;28;20071;-46
2022/04/16 03:19:35;;;;;;;13.80;8.38;;;;;;;;;;2097997;28;20537;-43
2022/04/16 03:20:37;;;;;;;12.77;7.82;;;;;;;;;;2097921;28;20131;-46
2022/04/16 03:21:38;;;;;;;13.73;7.80;;;;;;;;;;2097882;28;20493;-47
2022/04/16 03:22:43;;;;;;;15.73;8.87;;;;;;;;;;2097899;28;20128;-43
2022/04/16 03:23:44;;;;;;;12.73;8.10;;;;;;;;;;2100297;28;20131;-47
2022/04/16 03:24:45;;;;;;;12.33;8.17;;;;;;;;;;2106383;28;20055;-46
2022/04/16 03:25:48;;;;;;;15.25;9.43;;;;;;;;;;2106177;28;20040;-43
2022/04/16 03:26:49;;;;;;;15.52;8.73;;;;;;;;;;2106333;28;20150;-46
2022/04/16 03:27:50;;;;;;;13.95;7.90;;;;;;;;;;2106288;28;20130;-43
2022/04/16 03:28:51;;;;;;;14.00;8.15;;;;;;;;;;2106354;28;20127;-44
2022/04/16 03:29:52;;;;;;;12.55;7.38;;;;;;;;;;2106192;28;20465;-46
2022/04/16 03:30:53;;;;;;;11.93;6.87;;;;;;;;;;2106393;28;20047;-43
2022/04/16 03:31:54;;;;;;;14.38;7.78;;;;;;;;;;2106112;28;20292;-45
2022/04/16 03:32:56;;;;;;;14.23;8.55;;;;;;;;;;2106275;28;20042;-46
2022/04/16 03:33:57;;;;;;;13.25;8.15;;;;;;;;;;2106298;28;20143;-46
2022/04/16 03:34:58;;;;;;;14.18;8.95;;;;;;;;;;2106043;28;20127;-43
2022/04/16 03:35:59;;;;;;;14.07;8.48;;;;;;;;;;2105197;28;20044;-46
2022/04/16 03:37:00;;;;;;;16.40;8.90;;;;;;;;;;2106134;28;20126;-46
2022/04/16 03:38:01;;;;;;;15.30;9.15;;;;;;;;;;2106236;28;20131;-46
2022/04/16 03:39:03;;;;;;;16.17;9.35;;;;;;;;;;2106359;28;20123;-46
2022/04/16 03:40:04;;;;;;;14.85;8.23;;;;;;;;;;2106325;28;20044;-43
2022/04/16 03:41:06;;;;;;;17.25;8.93;;;;;;;;;;2106155;28;20132;-43
2022/04/16 03:42:07;;;;;;;16.13;9.18;;;;;;;;;;2106242;28;20056;-43
2022/04/16 03:43:08;;;;;;;15.10;9.17;;;;;;;;;;2098576;28;20139;-46
2022/04/16 03:44:09;;;;;;;14.93;9.63;;;;;;;;;;2098024;28;20127;-43
2022/04/16 03:45:15;;;;;;;14.18;8.68;;;;;;;;;;2097750;28;20080;-47
2022/04/16 03:46:16;;;;;;;16.10;8.82;;;;;;;;;;2097839;28;20086;-43
2022/04/16 03:47:17;;;;;;;15.13;8.80;;;;;;;;;;2097808;28;20048;-46
2022/04/16 03:48:18;;;;;;;17.57;9.10;;;;;;;;;;2097823;28;20123;-46
2022/04/16 03:49:19;;;;;;;14.88;8.50;;;;;;;;;;2097659;28;20135;-43
2022/04/16 03:50:21;;;;;;;14.40;8.37;;;;;;;;;;2097737;28;20068;-43
2022/04/16 03:51:22;;;;;;;15.55;8.80;;;;;;;;;;2097697;28;20565;-43
2022/04/16 03:52:23;;;;;;;12.57;8.07;;;;;;;;;;2097671;28;20072;-43
2022/04/16 03:53:24;;;;;;;15.18;8.70;;;;;;;;;;2097754;28;20610;-46
2022/04/16 04:00:03;;;;;;;15.60;9.45;;;;;;;;;;2097857;28;20128;-43
2022/04/16 04:01:04;;;;;;;13.63;8.75;;;;;;;;;;2098586;28;20170;-47
2022/04/16 04:02:05;;;;;;;14.48;8.57;;;;;;;;;;2106153;28;20155;-47
2022/04/16 04:03:06;;;;;;;12.80;7.40;;;;;;;;;;2106029;28;20052;-43
2022/04/16 04:04:10;;;;;;;13.93;8.18;;;;;;;;;;2106180;28;20091;-48
2022/04/16 04:05:11;;;;;;;16.30;9.32;;;;;;;;;;2106096;28;20047;-46
2022/04/16 04:06:13;;;;;;;12.97;8.23;;;;;;;;;;2106025;28;20450;-46
2022/04/16 04:07:13;;;;;;;15.07;8.60;;;;;;;;;;2106027;28;20066;-46
2022/04/16 04:08:15;;;;;;;14.63;8.55;;;;;;;;;;2105872;28;20085;-43
2022/04/16 04:09:16;;;;;;;16.25;8.90;;;;;;;;;;2105950;28;20139;-43
2022/04/16 04:10:17;;;;;;;16.63;9.10;;;;;;;;;;2106106;28;20071;-47
2022/04/16 04:11:18;;;;;;;14.10;8.65;;;;;;;;;;2106025;28;20048;-47
2022/04/16 04:12:20;;;;;;;13.20;8.07;;;;;;;;;;2105877;28;20450;-47
2022/04/16 04:13:21;;;;;;;14.63;8.90;;;;;;;;;;2106091;28;20119;-43
2022/04/16 04:14:22;;;;;;;14.52;9.18;;;;;;;;;;2106033;28;20052;-43
2022/04/16 04:15:23;;;;;;;15.43;8.60;;;;;;;;;;2106002;28;20165;-46
2022/04/16 04:16:25;;;;;;;15.27;9.05;;;;;;;;;;2105997;28;20140;-43
2022/04/16 04:17:26;;;;;;;13.10;8.25;;;;;;;;;;2105877;28;20048;-43
2022/04/16 04:18:27;;;;;;;15.23;8.33;;;;;;;;;;2106152;28;20055;-46
2022/04/16 04:19:28;;;;;;;18.05;10.30;;;;;;;;;;2105963;28;20296;-46
2022/04/16 04:20:29;;;;;;;14.60;8.17;;;;;;;;;;2105746;28;20123;-45
2022/04/16 04:21:30;;;;;;;14.15;8.57;;;;;;;;;;2105835;28;20098;-44
2022/04/16 04:22:31;;;;;;;17.10;9.48;;;;;;;;;;2105841;28;20147;-43
2022/04/16 04:23:33;;;;;;;17.10;9.10;;;;;;;;;;2105965;28;20059;-47
2022/04/16 04:24:34;;;;;;;14.43;9.15;;;;;;;;;;2105965;28;20127;-46
2022/04/16 04:25:35;;;;;;;14.13;8.43;;;;;;;;;;2106065;28;20048;-43
2022/04/16 04:26:36;;;;;;;12.75;7.85;;;;;;;;;;2105780;28;20040;-47
2022/04/16 04:27:37;;;;;;;14.37;8.13;;;;;;;;;;2106084;28;20078;-45
2022/04/16 04:28:38;;;;;;;;;;;;;;;;;;2106226;28;20089;-43
2022/04/16 04:29:39;;;;;;;14.20;8.82;;;;;;;;;;2105707;28;19973;-43
2022/04/16 04:30:40;;;;;;;15.68;9.07;;;;;;;;;;2105983;28;20119;-43
2022/04/16 04:31:42;;;;;;;13.70;8.35;;;;;;;;;;2105937;28;20050;-43
2022/04/16 04:32:43;;;;;;;17.90;9.77;;;;;;;;;;2105741;28;20044;-43
2022/04/16 04:33:44;;;;;;;13.55;9.10;;;;;;;;;;2105959;28;20043;-46
2022/04/16 04:34:45;;;;;;;15.70;8.97;;;;;;;;;;2105865;28;20496;-46
2022/04/16 04:35:47;;;;;;;15.30;8.60;;;;;;;;;;2105869;28;20073;-43
2022/04/16 04:36:48;;;;;;;;;;;;;;;;;;2106222;28;20134;-46
2022/04/16 04:37:49;;;;;;;12.10;7.53;;;;;;;;;;2105948;28;19927;-43
2022/04/16 04:38:50;;;;;;;14.05;8.18;;;;;;;;;;2105958;28;20406;-43
2022/04/16 04:39:51;;;;;;;13.32;8.75;;;;;;;;;;2105799;28;20583;-46
2022/04/16 04:40:52;;;;;;;15.20;8.33;;;;;;;;;;2106018;28;20126;-47
2022/04/16 04:41:53;;;;;;;13.95;7.93;;;;;;;;;;2105750;28;20115;-43
2022/04/16 04:42:55;;;;;;;15.53;8.73;;;;;;;;;;2105906;28;20404;-43
2022/04/16 04:43:56;;;;;;;14.48;8.70;;;;;;;;;;2105770;28;20922;-47
2022/04/16 04:44:58;;;;;;;13.10;8.33;;;;;;;;;;2105802;28;20044;-46
2022/04/16 04:45:58;;;;;;;16.77;8.30;;;;;;;;;;2105837;28;20130;-43
2022/04/16 04:47:00;;;;;;;13.17;8.87;;;;;;;;;;2105687;28;20113;-47
2022/04/16 04:48:01;;;;;;;14.82;9.15;;;;;;;;;;2105809;28;20360;-43
2022/04/16 04:49:02;;;;;;;17.77;9.57;;;;;;;;;;2105701;28;20416;-43
2022/04/16 04:50:04;;;;;;;16.20;9.25;;;;;;;;;;2105777;28;20629;-47
2022/04/16 04:51:05;;;;;;;;;;;;;;;;;;2105960;28;20396;-46
2022/04/16 04:52:06;;;;;;;13.90;8.13;;;;;;;;;;2105886;28;19920;-47
2022/04/16 04:53:08;;;;;;;16.33;9.40;;;;;;;;;;2105645;28;20135;-43
2022/04/16 04:54:09;;;;;;;14.88;9.40;;;;;;;;;;2105642;28;20135;-43
2022/04/16 04:55:11;;;;;;;14.48;9.57;;;;;;;;;;2105834;28;20127;-46
2022/04/16 04:56:12;;;;;;;16.75;9.40;;;;;;;;;;2105881;28;20131;-43
2022/04/16 04:57:13;;;;;;;16.90;9.50;;;;;;;;;;2105693;28;20122;-46
2022/04/16 04:58:14;;;;;;;16.25;9.68;;;;;;;;;;2105844;28;20129;-43
2022/04/16 04:59:22;;;;;;;16.25;8.90;;;;;;;;;;2105801;28;20051;-43
2022/04/16 05:00:23;;;;;;;19.25;10.18;;;;;;;;;;2105658;28;20123;-43
2022/04/16 05:01:24;;;;;;;16.43;9.73;;;;;;;;;;2101580;28;20127;-43
2022/04/16 05:02:25;;;;;;;16.35;8.13;;;;;;;;;;2097337;28;20044;-46
2022/04/16 05:03:26;;;;;;;14.90;8.47;;;;;;;;;;2097181;28;20527;-46
2022/04/16 05:04:28;;;;;;;16.23;9.27;;;;;;;;;;2097276;28;20364;-43
2022/04/16 05:05:29;;;;;;;18.47;10.17;;;;;;;;;;2097183;28;20511;-47
2022/04/16 05:06:30;;;;;;;15.63;9.38;;;;;;;;;;2097140;28;20695;-43
2022/04/16 05:07:31;;;;;;;15.30;9.07;;;;;;;;;;2097426;28;20052;-49
2022/04/16 05:08:32;;;;;;;16.20;9.73;;;;;;;;;;2097356;28;20087;-43
2022/04/16 05:09:33;;;;;;;15.80;9.30;;;;;;;;;;2097376;28;20160;-43
2022/04/16 05:10:35;;;;;;;17.67;8.75;;;;;;;;;;2097353;28;20143;-46
2022/04/16 05:11:35;;;;;;;16.63;9.32;;;;;;;;;;2097211;28;20139;-43
2022/04/16 05:12:37;;;;;;;14.17;9.17;;;;;;;;;;2097259;28;20049;-43
2022/04/16 05:13:38;;;;;;;17.25;9.23;;;;;;;;;;2097308;28;20135;-43
2022/04/16 05:14:39;;;;;;;15.05;9.00;;;;;;;;;;2097414;28;20408;-46
2022/04/16 05:15:40;;;;;;;17.70;9.00;;;;;;;;;;2097168;28;20584;-43
2022/04/16 05:16:42;;;;;;;15.52;9.18;;;;;;;;;;2103300;28;20400;-43
2022/04/16 05:17:43;;;;;;;18.70;9.40;;;;;;;;;;2105743;28;20036;-43
2022/04/16 05:18:44;;;;;;;17.10;9.15;;;;;;;;;;2105774;28;20574;-43
2022/04/16 05:19:45;;;;;;;18.70;9.45;;;;;;;;;;2105547;28;20499;-47
2022/04/16 05:20:46;;;;;;;18.37;9.73;;;;;;;;;;2105693;28;20068;-46
2022/04/16 05:21:47;;;;;;;16.15;9.18;;;;;;;;;;2105648;28;20127;-46
2022/04/16 05:22:49;;;;;;;15.37;8.63;;;;;;;;;;2105412;28;20048;-46
2022/04/16 05:23:50;;;;;;;17.73;9.60;;;;;;;;;;2105510;28;20481;-44
2022/04/16 05:24:51;;;;;;;15.43;9.10;;;;;;;;;;2105479;28;20123;-43
2022/04/16 05:25:52;;;;;;;17.77;9.50;;;;;;;;;;2105625;28;20498;-43
2022/04/16 05:26:53;;;;;;;14.95;8.10;;;;;;;;;;2105459;28;20077;-43
2022/04/16 05:27:54;;;;;;;12.07;8.20;;;;;;;;;;2105638;28;20139;-43
2022/04/16 05:28:56;;;;;;;15.60;9.02;;;;;;;;;;2105413;28;20131;-43
2022/04/16 05:30:06;;;;;;;;;;;;;;;;;;2105988;28;20123;-43
2022/04/16 05:31:07;;;;;;;15.63;9.25;;;;;;;;;;2105539;28;20011;-47
2022/04/16 05:32:10;;;;;;;15.52;9.20;;;;;;;;;;2105648;28;20055;-46
2022/04/16 05:34:18;;;;;;;15.40;8.75;;;;;;;;;;2105506;28;20129;-43
2022/04/16 05:34:37;;;;;;;15.32;8.88;;;;;;;;;;2105767;28;20048;-47
2022/04/16 05:35:38;;;;;;;13.55;8.43;;;;;;;;;;2105600;28;20052;-46
2022/04/16 05:36:39;;;;;;;14.77;9.13;;;;;;;;;;2105464;28;20189;-47
2022/04/16 05:37:41;;;;;;;15.55;9.32;;;;;;;;;;2105748;28;20119;-43
2022/04/16 05:38:42;;;;;;;15.10;9.07;;;;;;;;;;2105713;28;20165;-43
2022/04/16 05:39:44;;;;;;;14.33;9.13;;;;;;;;;;2105501;28;20133;-43
2022/04/16 05:40:45;;;;;;;16.08;9.55;;;;;;;;;;2105372;28;20330;-43
2022/04/16 05:41:46;;;;;;;15.93;8.85;;;;;;;;;;2105563;28;20489;-43
2022/04/16 05:42:47;;;;;;;14.05;8.48;;;;;;;;;;2105290;28;20123;-43
2022/04/16 05:43:48;;;;;;;17.17;9.50;;;;;;;;;;2105585;28;20131;-47
2022/04/16 05:44:50;;;;;;;16.48;9.07;;;;;;;;;;2105453;28;20598;-46
2022/04/16 05:45:51;;;;;;;;;;;;;;;;;;2105903;28;20481;-43
2022/04/16 05:46:52;;;;;;;14.70;8.57;;;;;;;;;;2105467;28;19962;-43
2022/04/16 05:47:53;;;;;;;12.00;7.43;;;;;;;;;;2105617;28;20127;-43
2022/04/16 05:48:54;;;;;;;15.70;8.03;;;;;;;;;;2105313;28;20485;-47
2022/04/16 05:49:55;;;;;;;13.20;7.18;;;;;;;;;;2105594;28;20119;-43
2022/04/16 05:50:57;;;;;;;14.38;7.20;;;;;;;;;;2105375;28;20041;-43
2022/04/16 05:51:58;;;;;;;15.40;6.88;;;;;;;;;;2105418;28;20075;-43
2022/04/16 05:52:59;;;;;;;18.08;8.57;;;;;;;;;;2105370;28;20056;-43
2022/04/16 05:54:01;;;;;;;16.67;8.43;;;;;;;;;;2105389;28;20127;-48
2022/04/16 05:55:02;;;;;;;16.55;9.07;;;;;;;;;;2105614;28;20126;-43
2022/04/16 05:56:03;;;;;;;16.85;8.13;;;;;;;;;;2105272;28;20529;-47
2022/04/16 05:57:06;;;;;;;16.90;8.20;;;;;;;;;;2105411;28;20481;-47
2022/04/16 05:58:07;;;;;;;13.93;8.10;;;;;;;;;;2105366;28;20155;-43
2022/04/16 05:59:08;;;;;;;14.73;7.63;;;;;;;;;;2106169;28;20048;-47
2022/04/16 06:00:13;;;;;;;10.98;7.90;;;;;;;;;;2106865;28;20052;-48
2022/04/16 06:01:14;;;;;;;17.20;8.57;;;;;;;;;;2104017;28;20555;-43
2022/04/16 06:02:15;;;;;;;12.45;7.10;;;;;;;;;;2098612;28;20093;-43
2022/04/16 06:03:16;;;;;;;12.93;7.13;;;;;;;;;;2098315;28;20529;-43
2022/04/16 06:04:17;;;;;;;12.15;7.38;;;;;;;;;;2098482;28;20135;-46
2022/04/16 06:05:21;;;;;;;14.65;8.23;;;;;;;;;;2098371;28;20074;-43
2022/04/16 06:06:22;;;;;;;15.15;8.45;;;;;;;;;;2098413;28;20132;-44
2022/04/16 06:07:23;;;;;;;14.57;7.90;;;;;;;;;;2098354;28;20102;-43
2022/04/16 06:08:24;;;;;;;17.00;8.02;;;;;;;;;;2098388;28;20070;-47
2022/04/16 06:09:25;;;;;;;14.23;7.38;;;;;;;;;;2098343;28;20393;-43
2022/04/16 06:10:26;;;;;;;15.17;7.40;;;;;;;;;;2098525;28;20083;-43
2022/04/16 06:11:28;;;;;;;14.15;8.35;;;;;;;;;;2098323;28;20473;-45
2022/04/16 06:12:29;;;;;;;15.05;7.82;;;;;;;;;;2100527;28;20480;-43
2022/04/16 06:13:30;;;;;;;14.37;8.83;;;;;;;;;;2106746;28;20044;-44
2022/04/16 06:14:31;;;;;;;16.95;7.50;;;;;;;;;;2106709;28;20199;-44
2022/04/16 06:15:33;;;;;;;15.55;8.27;;;;;;;;;;2106704;28;20134;-43
2022/04/16 06:16:34;;;;;;;;;;;;;;;;;;2107064;28;20450;-47
2022/04/16 06:17:36;;;;;;;11.80;7.45;;;;;;;;;;2106668;28;19969;-43